createdAt,value
2018-08-03T00:06:17.533Z,11.80
2018-08-03T00:12:02.214Z,11.80
2018-08-03T00:14:35.023Z,11.17
2018-08-03T00:17:09.592Z,10.07
2018-08-03T00:19:40.151Z,10.90
2018-08-03T00:22:13.138Z,11.90
2018-08-03T00:24:45.058Z,11.47
2018-08-03T00:30:26.490Z,11.10
2018-08-03T00:32:57.003Z,11.40
2018-08-03T00:35:28.014Z,11.77
2018-08-03T00:37:58.446Z,11.77
2018-08-03T00:40:28.411Z,12.90
2018-08-03T00:42:58.930Z,11.80
2018-08-03T00:45:29.832Z,12.20
2018-08-03T00:48:00.098Z,11.83
2018-08-03T00:50:31.815Z,12.63
2018-08-03T00:53:03.258Z,11.97
2018-08-03T00:55:33.638Z,11.30
2018-08-03T00:58:04.326Z,11.73
2018-08-03T01:00:36.620Z,12.43
2018-08-03T01:03:43.996Z,11.40
2018-08-03T01:06:15.304Z,12.63
2018-08-03T01:08:45.945Z,12.03
2018-08-03T01:11:18.219Z,12.73
2018-08-03T01:13:48.235Z,12.27
2018-08-03T01:16:26.533Z,12.63
2018-08-03T01:19:26.459Z,11.50
2018-08-03T01:21:58.591Z,12.37
2018-08-03T01:24:29.161Z,11.63
2018-08-03T01:26:59.430Z,12.87
2018-08-03T01:29:33.563Z,13.07
2018-08-03T01:32:07.965Z,12.53
2018-08-03T01:34:42.761Z,12.60
2018-08-03T01:37:13.232Z,11.80
2018-08-03T01:39:44.061Z,12.00
2018-08-03T01:42:14.336Z,12.63
2018-08-03T01:44:45.097Z,12.27
2018-08-03T01:49:56.192Z,11.80
2018-08-03T01:52:26.488Z,12.40
2018-08-03T01:54:59.897Z,12.30
2018-08-03T01:57:31.224Z,13.13
2018-08-03T02:00:01.983Z,13.27
2018-08-03T02:02:32.262Z,12.30
2018-08-03T02:05:06.836Z,13.63
2018-08-03T02:07:37.647Z,13.73
2018-08-03T02:10:07.865Z,13.73
2018-08-03T02:12:38.499Z,13.07
2018-08-03T02:18:04.029Z,13.73
2018-08-03T02:20:34.273Z,13.63
2018-08-03T02:23:04.474Z,13.93
2018-08-03T02:25:35.624Z,14.77
2018-08-03T02:28:05.959Z,12.67
2018-08-03T02:30:36.593Z,13.83
2018-08-03T02:33:06.929Z,14.23
2018-08-03T02:35:37.120Z,14.40
2018-08-03T02:38:08.016Z,13.53
2018-08-03T02:40:38.191Z,12.70
2018-08-03T02:43:10.711Z,13.60
2018-08-03T02:45:40.967Z,14.20
2018-08-03T02:48:12.503Z,12.20
2018-08-03T02:50:43.795Z,13.13
2018-08-03T02:53:16.178Z,13.07
2018-08-03T02:55:46.492Z,13.37
2018-08-03T02:58:17.024Z,13.40
2018-08-03T03:00:47.109Z,14.13
2018-08-03T03:03:19.544Z,14.33
2018-08-03T03:05:49.840Z,14.27
2018-08-03T03:08:20.125Z,14.27
2018-08-03T03:10:50.192Z,13.60
2018-08-03T03:13:23.954Z,14.03
2018-08-03T03:15:54.053Z,14.40
2018-08-03T03:18:24.334Z,14.33
2018-08-03T03:20:55.149Z,13.90
2018-08-03T03:26:20.906Z,14.33
2018-08-03T03:31:44.850Z,13.23
2018-08-03T03:34:17.024Z,14.70
2018-08-03T03:36:47.472Z,14.97
2018-08-03T03:39:17.784Z,15.23
2018-08-03T03:41:47.891Z,14.97
2018-08-03T03:44:41.074Z,14.03
2018-08-03T03:47:12.705Z,14.70
2018-08-03T03:49:45.220Z,14.83
2018-08-03T03:52:23.290Z,16.13
2018-08-03T03:54:54.597Z,14.40
2018-08-03T03:57:25.709Z,15.07
2018-08-03T03:59:58.613Z,15.10
2018-08-03T04:02:28.953Z,14.17
2018-08-03T04:09:41.444Z,13.93
2018-08-03T04:12:11.620Z,13.93
2018-08-03T04:14:42.237Z,14.47
2018-08-03T04:17:12.682Z,14.50
2018-08-03T04:19:43.293Z,15.27
2018-08-03T04:22:21.302Z,14.97
2018-08-03T04:24:55.092Z,15.93
2018-08-03T04:27:40.766Z,14.03
2018-08-03T04:30:10.989Z,14.27
2018-08-03T04:32:41.137Z,14.70
2018-08-03T04:35:12.964Z,14.03
2018-08-03T04:37:44.058Z,14.47
2018-08-03T04:40:14.743Z,14.77
2018-08-03T04:42:45.184Z,14.30
2018-08-03T04:45:18.080Z,15.47
2018-08-03T04:47:48.930Z,14.83
2018-08-03T04:50:45.132Z,14.30
2018-08-03T04:53:21.813Z,13.80
2018-08-03T04:55:55.502Z,14.97
2018-08-03T04:58:30.084Z,14.40
2018-08-03T05:01:03.104Z,14.07
2018-08-03T05:03:42.896Z,14.40
2018-08-03T05:06:16.976Z,14.27
2018-08-03T05:08:50.111Z,13.90
2018-08-03T05:11:34.156Z,13.80
2018-08-03T05:14:45.233Z,14.20
2018-08-03T05:17:19.717Z,12.87
2018-08-03T05:19:52.406Z,14.20
2018-08-03T05:28:06.000Z,13.27
2018-08-03T05:30:49.259Z,14.63
2018-08-03T05:33:29.294Z,13.23
2018-08-03T05:36:04.180Z,13.13
2018-08-03T05:38:44.271Z,13.30
2018-08-03T05:41:20.316Z,13.53
2018-08-03T05:46:41.852Z,13.87
2018-08-03T05:49:14.095Z,13.67
2018-08-03T05:51:47.217Z,13.67
2018-08-03T05:54:17.668Z,13.13
2018-08-03T05:56:48.024Z,13.30
2018-08-03T05:59:20.204Z,13.27
2018-08-03T06:01:51.084Z,14.00
2018-08-03T06:04:22.085Z,13.90
2018-08-03T06:06:52.428Z,13.83
2018-08-03T06:09:22.420Z,13.57
2018-08-03T06:11:53.179Z,12.90
2018-08-03T06:14:24.810Z,13.67
2018-08-03T06:16:55.619Z,14.23
2018-08-03T06:19:43.290Z,19.13
2018-08-03T06:22:13.827Z,18.67
2018-08-03T06:24:43.924Z,17.83
2018-08-03T06:27:21.564Z,18.40
2018-08-03T06:29:52.775Z,19.40
2018-08-03T06:32:33.659Z,18.20
2018-08-03T06:35:05.133Z,16.83
2018-08-03T06:42:59.553Z,18.53
2018-08-03T06:45:31.075Z,18.07
2018-08-03T06:48:02.398Z,17.30
2018-08-03T06:50:41.105Z,17.13
2018-08-03T06:53:21.342Z,17.40
2018-08-03T06:55:55.930Z,18.23
2018-08-03T06:58:35.678Z,16.80
2018-08-03T07:01:19.720Z,16.80
2018-08-03T07:03:57.609Z,16.63
2018-08-03T07:06:35.369Z,16.53
2018-08-03T07:09:21.149Z,16.83
2018-08-03T07:12:02.902Z,15.57
2018-08-03T07:14:35.792Z,15.63
2018-08-03T07:17:17.044Z,16.53
2018-08-03T07:19:53.962Z,14.83
2018-08-03T07:22:29.421Z,15.30
2018-08-03T07:25:04.037Z,17.43
2018-08-03T07:27:45.613Z,15.27
2018-08-03T07:30:28.496Z,15.97
2018-08-03T07:35:50.911Z,15.10
2018-08-03T07:38:29.369Z,15.17
2018-08-03T07:43:52.701Z,14.27
2018-08-03T07:46:28.368Z,13.80
2018-08-03T07:49:07.568Z,15.37
2018-08-03T07:54:36.032Z,13.30
2018-08-03T07:59:56.494Z,13.87
2018-08-03T08:02:41.159Z,12.70
2018-08-03T08:05:16.368Z,11.83
2018-08-03T08:07:46.584Z,12.10
2018-08-03T08:10:42.250Z,13.10
2018-08-03T08:13:20.966Z,11.97
2018-08-03T08:16:07.968Z,12.53
2018-08-03T08:18:44.206Z,12.53
2018-08-03T08:21:15.396Z,12.63
2018-08-03T08:23:53.232Z,11.87
2018-08-03T08:26:33.221Z,11.83
2018-08-03T08:29:18.919Z,11.90
2018-08-03T08:41:38.569Z,11.13
2018-08-03T08:46:57.393Z,10.43
2018-08-03T08:55:44.408Z,10.30
2018-08-03T08:58:30.676Z,11.73
2018-08-03T09:01:15.167Z,10.10
2018-08-03T09:04:03.209Z,9.27
2018-08-03T09:06:57.531Z,13.73
2018-08-03T09:09:29.938Z,10.37
2018-08-03T09:12:02.933Z,9.83
2018-08-03T09:14:43.290Z,8.40
2018-08-03T09:20:27.524Z,9.00
2018-08-03T09:23:05.643Z,9.77
2018-08-03T09:34:38.996Z,9.03
2018-08-03T09:37:15.980Z,8.97
2018-08-03T09:45:58.369Z,9.40
2018-08-03T09:51:31.256Z,9.60
2018-08-03T09:54:01.726Z,9.53
2018-08-03T09:56:40.510Z,9.47
2018-08-03T09:59:31.376Z,9.10
2018-08-03T10:02:02.032Z,9.67
2018-08-03T10:04:42.304Z,10.07
2018-08-03T10:10:07.161Z,9.27
2018-08-03T10:12:41.409Z,9.10
2018-08-03T10:15:23.598Z,8.80
2018-08-03T10:20:56.508Z,9.83
2018-08-03T10:23:29.146Z,10.07
2018-08-03T10:25:59.664Z,10.10
2018-08-03T10:28:29.745Z,9.50
2018-08-03T10:31:00.506Z,9.90
2018-08-03T10:33:34.722Z,9.70
2018-08-03T10:36:14.528Z,9.33
2018-08-03T10:38:48.520Z,10.00
2018-08-03T10:41:24.014Z,10.30
2018-08-03T10:43:56.477Z,10.00
2018-08-03T10:46:26.496Z,10.03
2018-08-03T10:48:56.576Z,9.33
2018-08-03T10:51:44.236Z,9.43
2018-08-03T10:54:18.277Z,9.13
2018-08-03T10:56:58.005Z,9.13
2018-08-03T10:59:28.233Z,9.00
2018-08-03T11:01:59.026Z,9.43
2018-08-03T11:04:29.957Z,9.70
2018-08-03T11:07:00.686Z,9.50
2018-08-03T11:09:38.318Z,9.70
2018-08-03T11:12:20.786Z,9.07
2018-08-03T11:15:01.611Z,9.40
2018-08-03T11:20:27.331Z,9.20
2018-08-03T11:23:03.735Z,9.60
2018-08-03T11:25:41.869Z,10.33
2018-08-03T11:28:53.316Z,9.77
2018-08-03T11:31:35.876Z,9.03
2018-08-03T11:34:18.017Z,8.40
2018-08-03T11:36:48.662Z,9.90
2018-08-03T11:39:21.424Z,9.53
2018-08-03T11:41:51.505Z,8.57
2018-08-03T11:44:31.419Z,8.47
2018-08-03T11:47:18.587Z,9.03
2018-08-03T11:52:41.842Z,8.77
2018-08-03T11:55:13.409Z,8.30
2018-08-03T11:57:45.919Z,8.43
2018-08-03T12:09:57.715Z,8.33
2018-08-03T12:12:29.171Z,8.03
2018-08-03T12:15:01.218Z,7.40
2018-08-03T12:20:50.925Z,8.10
2018-08-03T12:23:33.291Z,7.63
2018-08-03T12:26:11.643Z,8.43
2018-08-03T12:28:53.536Z,8.20
2018-08-03T12:31:38.270Z,8.13
2018-08-03T12:34:16.570Z,8.10
2018-08-03T12:36:57.396Z,8.63
2018-08-03T12:39:27.336Z,7.83
2018-08-03T12:42:00.082Z,8.40
2018-08-03T12:44:30.693Z,8.10
2018-08-03T12:47:03.491Z,8.37
2018-08-03T12:49:34.322Z,7.73
2018-08-03T12:52:06.892Z,8.23
2018-08-03T12:54:45.742Z,7.90
2018-08-03T12:57:19.680Z,7.80
2018-08-03T12:59:51.483Z,7.63
2018-08-03T13:02:25.992Z,8.20
2018-08-03T13:05:00.011Z,8.47
2018-08-03T13:07:31.107Z,8.97
2018-08-03T13:10:02.936Z,7.90
2018-08-03T13:13:03.372Z,7.53
2018-08-03T13:15:36.122Z,7.17
2018-08-03T13:18:19.387Z,7.67
2018-08-03T13:20:52.865Z,7.50
2018-08-03T13:23:24.445Z,8.03
2018-08-03T13:28:59.020Z,10.27
2018-08-03T13:31:36.949Z,8.10
2018-08-03T13:34:17.804Z,7.80
2018-08-03T13:36:59.726Z,7.90
2018-08-03T13:39:44.473Z,8.50
2018-08-03T13:42:20.128Z,8.03
2018-08-03T13:44:57.794Z,8.13
2018-08-03T13:47:28.460Z,8.20
2018-08-03T13:50:08.145Z,8.07
2018-08-03T13:52:50.680Z,8.03
2018-08-03T13:55:28.975Z,7.90
2018-08-03T13:58:06.441Z,7.53
2018-08-03T14:03:52.189Z,7.33
2018-08-03T14:06:39.444Z,6.77
2018-08-03T14:09:30.339Z,7.13
2018-08-03T14:15:29.583Z,7.27
2018-08-03T14:18:02.211Z,7.07
2018-08-03T14:20:32.378Z,7.17
2018-08-03T14:23:16.393Z,7.27
2018-08-03T14:25:49.924Z,7.10
2018-08-03T14:28:23.420Z,7.33
2018-08-03T14:31:01.803Z,7.17
2018-08-03T14:33:42.781Z,9.13
2018-08-03T14:36:20.684Z,7.00
2018-08-03T14:39:13.360Z,7.03
2018-08-03T14:44:30.905Z,6.80
2018-08-03T14:53:02.980Z,7.50
2018-08-03T14:58:36.073Z,6.80
2018-08-03T15:04:27.862Z,6.93
2018-08-03T15:07:01.933Z,7.20
2018-08-03T15:18:35.090Z,7.13
2018-08-03T15:21:16.514Z,7.40
2018-08-03T15:24:04.735Z,7.57
2018-08-03T15:27:02.618Z,6.97
2018-08-03T15:41:12.766Z,7.17
2018-08-03T15:43:50.630Z,7.13
2018-08-03T15:49:37.230Z,7.87
2018-08-03T15:52:27.422Z,8.03
2018-08-03T15:57:48.064Z,8.13
2018-08-03T16:00:25.303Z,7.27
2018-08-03T16:08:54.198Z,7.47
2018-08-03T16:20:30.672Z,7.43
2018-08-03T16:23:24.764Z,7.30
2018-08-03T16:29:21.096Z,8.10
2018-08-03T16:43:52.305Z,7.87
2018-08-03T16:46:40.152Z,8.27
2018-08-03T16:49:28.184Z,8.00
2018-08-03T16:52:02.834Z,7.87
2018-08-03T16:54:37.462Z,7.43
2018-08-03T16:57:12.278Z,7.60
2018-08-03T16:59:42.828Z,7.40
2018-08-03T17:02:13.737Z,8.17
2018-08-03T17:04:45.717Z,7.47
2018-08-03T17:07:20.451Z,8.00
2018-08-03T17:09:50.454Z,7.60
2018-08-03T17:12:25.391Z,7.63
2018-08-03T17:14:58.224Z,7.33
2018-08-03T17:17:29.210Z,7.73
2018-08-03T17:19:59.740Z,7.30
2018-08-03T17:22:31.361Z,7.30
2018-08-03T17:25:01.519Z,7.60
2018-08-03T17:27:34.865Z,7.53
2018-08-03T17:30:05.954Z,7.97
2018-08-03T17:32:36.613Z,8.57
2018-08-03T17:35:06.533Z,9.07
2018-08-03T17:37:37.142Z,7.90
2018-08-03T17:40:07.733Z,8.57
2018-08-03T17:42:38.209Z,8.43
2018-08-03T17:45:08.285Z,8.30
2018-08-03T17:47:39.458Z,9.33
2018-08-03T17:50:09.486Z,7.80
2018-08-03T17:52:39.456Z,7.53
2018-08-03T17:55:09.411Z,7.37
2018-08-03T17:57:40.539Z,7.80
2018-08-03T18:00:10.539Z,8.23
2018-08-03T18:02:40.351Z,7.47
2018-08-03T18:05:10.440Z,7.50
2018-08-03T18:09:23.559Z,7.73
2018-08-03T18:11:53.580Z,8.20
2018-08-03T18:14:23.683Z,8.17
2018-08-03T18:16:54.616Z,7.93
2018-08-03T18:19:25.262Z,7.40
2018-08-03T18:21:55.392Z,7.87
2018-08-03T18:24:25.305Z,7.33
2018-08-03T18:26:57.387Z,7.80
2018-08-03T18:29:28.291Z,7.63
2018-08-03T18:32:01.503Z,8.63
2018-08-03T18:34:40.732Z,7.30
2018-08-03T18:37:11.277Z,7.40
2018-08-03T18:39:41.557Z,7.40
2018-08-03T18:42:11.715Z,7.47
2018-08-03T18:44:43.995Z,7.90
2018-08-03T18:47:15.904Z,7.37
2018-08-03T18:49:46.225Z,7.60
2018-08-03T18:52:16.581Z,7.83
2018-08-03T18:54:49.963Z,8.10
2018-08-03T18:57:20.498Z,7.50
2018-08-03T18:59:51.628Z,7.73
2018-08-03T19:02:23.020Z,8.03
2018-08-03T19:04:53.498Z,8.03
2018-08-03T19:07:23.624Z,7.27
2018-08-03T19:10:00.670Z,7.43
2018-08-03T19:12:30.923Z,8.30
2018-08-03T19:15:01.962Z,7.80
2018-08-03T19:17:32.090Z,8.13
2018-08-03T19:20:02.515Z,7.63
2018-08-03T19:22:32.979Z,8.17
2018-08-03T19:25:03.468Z,8.50
2018-08-03T19:27:33.385Z,8.90
2018-08-03T19:30:03.405Z,9.13
2018-08-03T19:32:34.671Z,8.50
2018-08-03T19:35:04.901Z,8.60
2018-08-03T19:37:35.009Z,8.37
2018-08-03T19:40:05.450Z,8.40
2018-08-03T19:42:35.453Z,8.30
2018-08-03T19:45:05.808Z,8.30
2018-08-03T19:47:36.039Z,7.80
2018-08-03T19:50:06.352Z,8.00
2018-08-03T19:52:36.481Z,8.47
2018-08-03T19:55:06.995Z,7.90
2018-08-03T19:57:38.397Z,8.60
2018-08-03T20:00:10.927Z,7.63
2018-08-03T20:02:41.526Z,8.73
2018-08-03T20:05:11.893Z,8.63
2018-08-03T20:07:42.260Z,8.97
2018-08-03T20:10:12.231Z,8.50
2018-08-03T20:12:42.783Z,8.60
2018-08-03T20:15:13.189Z,8.07
2018-08-03T20:17:43.389Z,8.17
2018-08-03T20:20:13.426Z,8.40
2018-08-03T20:22:43.648Z,8.70
2018-08-03T20:25:16.025Z,8.97
2018-08-03T20:27:45.913Z,8.47
2018-08-03T20:30:16.056Z,8.27
2018-08-03T20:32:45.962Z,8.50
2018-08-03T20:35:16.299Z,8.53
2018-08-03T20:37:46.254Z,8.77
2018-08-03T20:40:16.278Z,8.80
2018-08-03T20:42:46.326Z,8.43
2018-08-03T20:45:16.557Z,8.50
2018-08-03T20:47:46.456Z,8.60
2018-08-03T20:50:16.504Z,9.90
2018-08-03T20:52:46.936Z,10.30
2018-08-03T20:55:17.924Z,8.90
2018-08-03T20:57:49.244Z,9.37
2018-08-03T21:00:20.642Z,8.43
2018-08-03T21:02:52.239Z,9.10
2018-08-03T21:05:22.429Z,10.07
2018-08-03T21:07:52.663Z,8.83
2018-08-03T21:10:27.568Z,9.13
2018-08-03T21:12:57.585Z,9.80
2018-08-03T21:15:27.503Z,9.10
2018-08-03T21:17:58.642Z,9.33
2018-08-03T21:20:28.539Z,8.47
2018-08-03T21:22:58.463Z,8.63
2018-08-03T21:25:28.327Z,9.00
2018-08-03T21:27:58.451Z,9.30
2018-08-03T21:30:28.267Z,9.33
2018-08-03T21:32:58.444Z,9.63
2018-08-03T21:35:28.430Z,9.43
2018-08-03T21:37:59.318Z,9.90
2018-08-03T21:40:30.139Z,9.30
2018-08-03T21:43:00.437Z,10.07
2018-08-03T21:45:35.375Z,9.33
2018-08-03T21:48:05.384Z,10.17
2018-08-03T21:50:35.393Z,9.47
2018-08-03T21:53:06.236Z,9.73
2018-08-03T21:55:36.441Z,8.93
2018-08-03T21:58:06.397Z,9.63
2018-08-03T22:00:36.425Z,10.07
2018-08-03T22:03:07.588Z,10.10
2018-08-03T22:05:37.490Z,9.83
2018-08-03T22:08:08.442Z,10.20
2018-08-03T22:10:39.062Z,10.17
2018-08-03T22:13:09.762Z,10.03
2018-08-03T22:15:41.090Z,10.37
2018-08-03T22:18:13.716Z,9.80
2018-08-03T22:20:44.074Z,10.33
2018-08-03T22:23:14.008Z,9.57
2018-08-03T22:25:44.625Z,10.53
2018-08-03T22:28:20.606Z,10.23
2018-08-03T22:30:51.147Z,10.13
2018-08-03T22:33:21.454Z,10.00
2018-08-03T22:35:51.796Z,10.80
2018-08-03T22:38:21.886Z,10.10
2018-08-03T22:40:52.623Z,10.33
2018-08-03T22:43:23.150Z,9.77
2018-08-03T22:45:53.070Z,9.80
2018-08-03T22:48:24.321Z,10.07
2018-08-03T22:50:54.194Z,10.13
2018-08-03T22:53:24.161Z,9.33
2018-08-03T22:55:54.159Z,10.17
2018-08-03T22:58:24.406Z,10.77
2018-08-03T23:00:56.316Z,10.77
2018-08-03T23:03:26.238Z,10.17
2018-08-03T23:05:56.848Z,10.33
2018-08-03T23:08:26.815Z,10.03
2018-08-03T23:10:56.744Z,9.77
2018-08-03T23:13:28.613Z,10.07
2018-08-03T23:15:58.532Z,9.50
2018-08-03T23:18:28.747Z,9.33
2018-08-03T23:20:58.616Z,9.80
2018-08-03T23:23:28.671Z,10.27
2018-08-03T23:25:58.688Z,9.70
2018-08-03T23:28:29.971Z,10.80
2018-08-03T23:30:59.953Z,10.30
2018-08-03T23:33:29.849Z,10.30
2018-08-03T23:35:59.695Z,10.27
2018-08-03T23:38:29.949Z,9.80
2018-08-03T23:40:59.858Z,10.23
2018-08-03T23:43:29.723Z,10.43
2018-08-03T23:45:59.614Z,11.20
2018-08-03T23:48:37.045Z,10.53
2018-08-03T23:51:06.896Z,10.57
2018-08-03T23:53:37.137Z,10.03
2018-08-03T23:56:07.200Z,10.00
2018-08-03T23:58:39.765Z,9.63
